Alamillo, New Mexico
Current Conditions -  °F | °C
As of 8:35 PM on Saturday 24 Jan 2015 (Local Time) from KONM Reporting Station
Clear Clear  
Wind Chill:   Ceiling: Unl
Heat Index:   Visibility: 10mi
Dew Point: -4°   Wind: 0mph
Humidity: 60%   Direction: NA
Pressure: 30.23"   Gusts: NA
Location:  34.262°N, 106.87°W
Report Text: KONM 250335Z AUTO 00000KT 10SM CLR 03/M04 A3023 RMK AO2 T00331039
Loading
Personal Weather Stations






























Interactive Weather Map New forecast layout! Learn more

10-Day Weather Forecast

Advertisements
Track Severe Weather on mobile